Time;durP1;ratioP1;P1;durP2;ratioP2;P2;SDS_P1;SDS_P2;PMS_P1;PMS_P2;Temp;Humidity;BMP_temperature;BMP_pressure;BME280_temperature;BME280_humidity;BME280_pressure;Samples;Min_cycle;Max_cycle;Signal;HPM_P1;HPM_P2
2022/04/12 00:00:59;;;;;;;4.83;4.30;;;7.90;99.90;;;;;;4963211;28;21068;-87
2022/04/12 00:03:25;;;;;;;4.80;4.30;;;8.00;99.90;;;;;;4957563;28;20453;-86
2022/04/12 00:06:01;;;;;;;6.10;5.50;;;7.90;99.90;;;;;;4962743;28;20440;-87
2022/04/12 00:08:27;;;;;;;7.03;5.23;;;8.00;99.90;;;;;;4955754;28;21116;-87
2022/04/12 00:10:54;;;;;;;9.03;7.10;;;8.00;99.90;;;;;;4952366;28;20509;-86
2022/04/12 00:13:20;;;;;;;7.37;6.67;;;8.00;99.90;;;;;;4945437;28;20239;-86
2022/04/12 00:15:48;;;;;;;7.23;6.47;;;8.10;99.90;;;;;;4947137;28;20475;-86
2022/04/12 00:20:58;;;;;;;7.70;6.53;;;8.00;99.90;;;;;;4970188;28;20450;-86
2022/04/12 00:23:24;;;;;;;6.50;5.80;;;8.10;99.90;;;;;;4955798;28;20532;-86
2022/04/12 00:25:50;;;;;;;7.77;6.83;;;8.00;99.90;;;;;;4955517;28;20201;-86
2022/04/12 00:28:15;;;;;;;8.10;6.30;;;8.00;99.90;;;;;;4968420;28;20455;-86
2022/04/12 00:30:42;;;;;;;8.20;6.80;;;8.00;99.90;;;;;;4963911;28;20685;-86
2022/04/12 00:33:07;;;;;;;6.47;5.83;;;8.00;99.90;;;;;;4965448;28;20189;-87
2022/04/12 00:35:35;;;;;;;8.47;6.43;;;8.00;99.90;;;;;;4957776;28;20452;-86
2022/04/12 00:38:13;;;;;;;5.97;5.37;;;7.90;99.90;;;;;;4977604;28;20184;-87
2022/04/12 00:40:40;;;;;;;5.63;5.03;;;7.90;99.90;;;;;;4953038;28;20547;-87
2022/04/12 00:43:06;;;;;;;7.90;6.13;;;7.90;99.90;;;;;;4953191;28;20432;-86
2022/04/12 00:45:31;;;;;;;7.70;6.10;;;7.80;99.90;;;;;;4954173;28;20482;-86
2022/04/12 00:47:57;;;;;;;7.07;5.90;;;7.90;99.90;;;;;;4961760;28;20245;-86
2022/04/12 00:50:22;;;;;;;6.40;5.77;;;7.80;99.90;;;;;;4960931;28;20294;-86
2022/04/12 00:52:51;;;;;;;10.33;6.40;;;7.80;99.90;;;;;;4964954;28;20700;-86
2022/04/12 00:55:17;;;;;;;6.37;5.77;;;7.70;99.90;;;;;;4970695;28;20192;-86
2022/04/12 00:57:43;;;;;;;8.33;5.90;;;7.70;99.90;;;;;;4950734;28;20451;-86
2022/04/12 01:00:11;;;;;;;6.07;5.47;;;7.70;99.90;;;;;;4958266;28;20446;-86
2022/04/12 01:02:36;;;;;;;6.40;5.70;;;7.60;99.90;;;;;;4955167;28;20470;-85
2022/04/12 01:05:03;;;;;;;6.60;6.00;;;7.60;99.90;;;;;;4951075;28;20445;-85
2022/04/12 01:07:30;;;;;;;6.43;5.83;;;7.50;99.90;;;;;;4966873;28;20182;-85
2022/04/12 01:09:58;;;;;;;6.73;5.60;;;7.50;99.90;;;;;;4956342;28;20451;-86
2022/04/12 01:12:27;;;;;;;5.87;5.27;;;7.50;99.90;;;;;;4954693;28;20561;-86
2022/04/12 01:14:52;;;;;;;5.60;5.00;;;7.40;99.90;;;;;;4949835;28;20872;-86
2022/04/12 01:17:20;;;;;;;5.77;4.90;;;7.40;99.90;;;;;;4946650;28;20450;-86
2022/04/12 01:20:06;;;;;;;6.47;5.80;;;7.30;99.90;;;;;;4968367;28;20203;-86
2022/04/12 01:22:33;;;;;;;8.90;5.53;;;7.30;99.90;;;;;;4953952;28;20455;-86
2022/04/12 01:25:22;;;;;;;5.53;4.87;;;7.30;99.90;;;;;;4952711;28;20443;-86
2022/04/12 01:27:48;;;;;;;5.90;5.37;;;7.30;99.90;;;;;;4950098;28;20531;-86
2022/04/12 01:30:14;;;;;;;5.90;5.33;;;7.20;99.90;;;;;;4962436;28;20437;-86
2022/04/12 01:32:40;;;;;;;5.73;5.00;;;7.10;99.90;;;;;;4960871;28;20493;-86
2022/04/12 01:35:06;;;;;;;5.43;4.90;;;6.80;99.90;;;;;;4977077;28;20495;-86
2022/04/12 01:37:31;;;;;;;4.90;4.47;;;6.90;99.90;;;;;;4960688;28;20192;-86
2022/04/12 01:39:57;;;;;;;5.13;4.63;;;6.80;99.90;;;;;;4958395;28;20436;-85
2022/04/12 01:42:23;;;;;;;5.97;5.30;;;6.80;99.90;;;;;;4950694;28;20957;-86
2022/04/12 01:44:48;;;;;;;5.13;4.63;;;6.80;99.90;;;;;;4954136;28;20899;-86
2022/04/12 01:47:15;;;;;;;6.47;4.70;;;6.80;99.90;;;;;;4953828;28;21348;-86
2022/04/12 01:49:40;;;;;;;7.40;5.10;;;6.80;99.90;;;;;;4956301;28;20686;-86
2022/04/12 01:52:06;;;;;;;7.30;5.50;;;6.80;99.90;;;;;;4965238;28;20481;-86
2022/04/12 01:54:32;;;;;;;5.53;5.03;;;6.80;99.90;;;;;;4941592;28;20605;-86
2022/04/12 01:56:57;;;;;;;5.53;5.03;;;6.70;99.90;;;;;;4954864;28;20448;-87
2022/04/12 01:59:23;;;;;;;5.90;5.30;;;6.70;99.90;;;;;;4952250;28;20181;-85
2022/04/12 02:01:49;;;;;;;5.60;5.10;;;6.70;99.90;;;;;;4955785;28;20193;-85
2022/04/12 02:04:14;;;;;;;6.13;5.37;;;6.60;99.90;;;;;;4949086;28;20218;-86
2022/04/12 02:06:40;;;;;;;6.60;4.77;;;6.60;99.90;;;;;;4943162;28;20204;-85
2022/04/12 02:09:05;;;;;;;5.67;5.17;;;6.60;99.90;;;;;;4949856;28;20185;-86
2022/04/12 02:11:31;;;;;;;6.57;5.20;;;6.50;99.90;;;;;;4955739;28;20312;-86
2022/04/12 02:13:56;;;;;;;5.37;4.80;;;6.40;99.90;;;;;;4942720;28;20607;-86
2022/04/12 02:16:23;;;;;;;6.77;5.57;;;6.40;99.90;;;;;;4942252;28;20189;-86
2022/04/12 02:18:48;;;;;;;6.33;5.57;;;6.40;99.90;;;;;;4949697;28;20255;-86
2022/04/12 02:21:14;;;;;;;5.67;5.17;;;6.30;99.90;;;;;;4970457;28;20476;-86
2022/04/12 02:24:00;;;;;;;5.43;4.90;;;6.20;99.90;;;;;;4951498;28;20177;-87
2022/04/12 02:26:26;;;;;;;7.87;5.87;;;6.20;99.90;;;;;;4951717;28;20457;-87
2022/04/12 02:28:51;;;;;;;5.33;4.90;;;6.20;99.90;;;;;;4956607;28;20434;-87
2022/04/12 02:31:17;;;;;;;5.00;4.30;;;6.00;99.90;;;;;;4962515;28;20220;-86
2022/04/12 02:33:46;;;;;;;4.40;3.90;;;6.10;99.90;;;;;;4965423;28;20248;-87
2022/04/12 02:36:12;;;;;;;5.60;4.60;;;6.10;99.90;;;;;;4970710;28;20199;-87
2022/04/12 02:38:37;;;;;;;5.27;4.77;;;6.10;99.90;;;;;;4957044;28;20449;-87
2022/04/12 02:41:03;;;;;;;5.17;4.67;;;6.20;99.90;;;;;;4962318;28;20196;-87
2022/04/12 02:43:28;;;;;;;5.40;4.50;;;6.20;99.90;;;;;;4957420;28;20178;-85
2022/04/12 02:45:54;;;;;;;4.50;4.13;;;6.20;99.90;;;;;;4955782;28;20181;-86
2022/04/12 02:48:20;;;;;;;4.30;3.90;;;6.20;99.90;;;;;;4958281;28;20539;-86
2022/04/12 02:50:45;;;;;;;4.60;4.20;;;6.20;99.90;;;;;;4958578;28;20227;-87
2022/04/12 02:53:11;;;;;;;4.93;4.43;;;6.00;99.90;;;;;;4945907;28;20219;-86
2022/04/12 02:55:49;;;;;;;4.70;4.27;;;6.00;99.90;;;;;;4952484;28;20185;-86
2022/04/12 02:58:14;;;;;;;4.87;4.47;;;6.00;99.90;;;;;;4955825;28;20804;-86
2022/04/12 03:00:40;;;;;;;19.17;11.20;;;6.00;99.90;;;;;;4962739;28;20632;-86
2022/04/12 03:03:05;;;;;;;9.40;7.10;;;6.00;99.90;;;;;;4977310;28;20724;-87
2022/04/12 03:05:31;;;;;;;14.13;9.00;;;5.90;99.90;;;;;;4967754;28;20583;-87
2022/04/12 03:07:56;;;;;;;12.93;8.80;;;5.90;99.90;;;;;;4961316;28;20224;-87
2022/04/12 03:10:22;;;;;;;9.70;7.23;;;5.90;99.90;;;;;;4949439;28;20189;-87
2022/04/12 03:12:47;;;;;;;7.80;5.47;;;6.00;99.90;;;;;;4950730;28;20829;-87
2022/04/12 03:15:13;;;;;;;5.80;5.17;;;5.90;99.90;;;;;;4964397;28;20178;-87
2022/04/12 03:17:38;;;;;;;5.60;4.60;;;5.90;99.90;;;;;;4950357;28;20357;-86
2022/04/12 03:20:04;;;;;;;5.80;5.20;;;5.90;99.90;;;;;;4952620;28;20581;-86
2022/04/12 03:22:30;;;;;;;5.00;4.50;;;5.80;99.90;;;;;;4952794;28;20200;-86
2022/04/12 03:24:56;;;;;;;6.17;4.50;;;5.90;99.90;;;;;;4946433;28;20904;-86
2022/04/12 03:27:22;;;;;;;6.23;4.80;;;5.80;99.90;;;;;;4950995;28;20193;-85
2022/04/12 03:29:47;;;;;;;5.70;4.40;;;5.80;99.90;;;;;;4953357;28;20885;-86
2022/04/12 03:32:13;;;;;;;4.27;3.87;;;5.70;99.90;;;;;;4965325;28;20222;-85
2022/04/12 03:34:40;;;;;;;3.93;3.63;;;5.70;99.90;;;;;;4962376;28;20181;-85
2022/04/12 03:37:06;;;;;;;5.80;3.80;;;5.60;99.90;;;;;;4969565;28;20194;-85
2022/04/12 03:39:32;;;;;;;4.93;4.33;;;5.60;99.90;;;;;;4959851;28;21277;-86
2022/04/12 03:41:57;;;;;;;3.63;3.33;;;5.60;99.90;;;;;;4965876;28;20276;-85
2022/04/12 03:44:23;;;;;;;4.17;3.73;;;5.60;99.90;;;;;;4953704;28;20197;-85
2022/04/12 03:46:48;;;;;;;5.17;4.20;;;5.60;99.90;;;;;;4962172;28;21101;-85
2022/04/12 03:49:14;;;;;;;4.73;4.27;;;5.60;99.90;;;;;;4956354;28;22977;-86
2022/04/12 03:51:39;;;;;;;4.73;4.33;;;5.50;99.90;;;;;;4959337;28;20226;-85
2022/04/12 03:54:05;;;;;;;5.17;4.67;;;5.50;99.90;;;;;;4958175;28;20196;-87
2022/04/12 03:56:31;;;;;;;7.20;4.27;;;5.50;99.90;;;;;;4953555;28;21632;-87
2022/04/12 03:59:00;;;;;;;4.17;3.87;;;5.50;99.90;;;;;;4953341;28;20825;-85
2022/04/12 04:01:28;;;;;;;4.70;3.90;;;5.50;99.90;;;;;;4950958;28;20192;-86
2022/04/12 04:03:56;;;;;;;4.17;3.77;;;5.60;99.90;;;;;;4949298;28;20453;-85
2022/04/12 04:06:22;;;;;;;4.20;3.80;;;5.60;99.90;;;;;;4951763;28;20958;-84
2022/04/12 04:08:48;;;;;;;4.37;3.83;;;5.50;99.90;;;;;;4956967;28;20439;-85
2022/04/12 04:11:13;;;;;;;4.23;3.83;;;5.50;99.90;;;;;;4944643;28;20325;-85
2022/04/12 04:13:39;;;;;;;4.43;4.00;;;5.40;99.90;;;;;;4956172;28;20199;-85
2022/04/12 04:16:05;;;;;;;5.20;4.70;;;5.30;99.90;;;;;;4956024;28;20252;-86
2022/04/12 04:18:34;;;;;;;5.23;4.73;;;5.30;99.90;;;;;;4959411;28;20191;-86
2022/04/12 04:20:59;;;;;;;6.20;4.63;;;5.20;99.90;;;;;;4955067;28;20718;-86
2022/04/12 04:23:25;;;;;;;6.10;4.70;;;5.20;99.90;;;;;;4945568;28;20976;-86
2022/04/12 04:25:51;;;;;;;4.43;4.03;;;5.10;99.90;;;;;;4953997;28;20230;-86
2022/04/12 04:28:21;;;;;;;4.43;4.03;;;5.20;99.90;;;;;;4975282;28;20191;-85
2022/04/12 04:30:50;;;;;;;4.90;4.13;;;5.30;99.90;;;;;;4960911;28;20199;-86
2022/04/12 04:33:19;;;;;;;5.13;3.90;;;5.20;99.90;;;;;;4950671;28;20458;-86
2022/04/12 04:35:49;;;;;;;7.23;3.83;;;5.20;99.90;;;;;;4982698;28;21099;-88
2022/04/12 04:38:15;;;;;;;4.80;4.40;;;5.20;99.90;;;;;;4958364;28;20450;-89
2022/04/12 04:40:40;;;;;;;4.97;4.03;;;5.30;99.90;;;;;;4970186;28;20467;-87
2022/04/12 04:43:07;;;;;;;4.27;3.93;;;5.30;99.90;;;;;;4974635;28;20438;-88
2022/04/12 04:45:33;;;;;;;4.33;3.97;;;5.20;99.90;;;;;;4978653;28;20544;-90
2022/04/12 04:48:01;;;;;;;6.03;4.83;;;5.20;99.90;;;;;;4971299;28;20494;-89
2022/04/12 04:50:32;;;;;;;5.47;4.97;;;5.20;99.90;;;;;;4977713;28;20444;-88
2022/04/12 04:53:00;;;;;;;5.53;4.33;;;5.20;99.90;;;;;;4965828;28;20526;-89
2022/04/12 04:55:26;;;;;;;4.80;4.13;;;5.20;99.90;;;;;;4969441;28;20451;-89
2022/04/12 04:57:57;;;;;;;4.37;3.97;;;5.20;99.90;;;;;;4976174;28;20462;-89
2022/04/12 05:00:29;;;;;;;6.40;4.70;;;5.20;99.90;;;;;;4981181;28;20291;-88
2022/04/12 05:02:57;;;;;;;4.17;3.77;;;5.20;99.90;;;;;;4980711;28;20442;-89
2022/04/12 05:05:22;;;;;;;5.20;4.70;;;5.20;99.90;;;;;;4981158;28;20441;-89
2022/04/12 05:07:49;;;;;;;6.40;5.80;;;5.20;99.90;;;;;;4970370;28;20453;-89
2022/04/12 05:10:20;;;;;;;6.20;5.17;;;5.20;99.90;;;;;;4975329;28;20183;-89
2022/04/12 05:12:46;;;;;;;6.30;5.60;;;5.20;99.90;;;;;;4971465;28;20821;-88
2022/04/12 05:15:12;;;;;;;6.27;5.70;;;5.20;99.90;;;;;;4970759;28;20438;-88
2022/04/12 05:17:38;;;;;;;7.37;5.70;;;5.10;99.90;;;;;;4968665;28;20190;-88
2022/04/12 05:20:12;;;;;;;6.63;5.93;;;5.10;99.90;;;;;;4969466;28;20773;-88
2022/04/12 05:22:37;;;;;;;5.83;5.33;;;5.20;99.90;;;;;;4967744;28;20709;-88
2022/04/12 05:25:03;;;;;;;6.10;5.07;;;5.20;99.90;;;;;;4973218;28;20446;-88
2022/04/12 05:27:35;;;;;;;4.53;4.00;;;5.30;99.90;;;;;;4979435;28;20227;-89
2022/04/12 05:30:02;;;;;;;9.70;6.27;;;5.40;99.90;;;;;;4972920;28;20895;-89
2022/04/12 05:32:28;;;;;;;5.93;5.13;;;5.40;99.90;;;;;;4980101;28;20682;-87
2022/04/12 05:34:54;;;;;;;7.13;5.37;;;5.60;99.90;;;;;;4968333;28;20452;-88
2022/04/12 05:37:20;;;;;;;8.07;4.50;;;5.70;99.90;;;;;;4966775;28;20188;-90
2022/04/12 05:39:45;;;;;;;5.93;4.90;;;5.80;99.90;;;;;;4967467;28;20586;-87
2022/04/12 05:42:11;;;;;;;6.30;5.37;;;6.00;99.90;;;;;;4965518;28;20440;-88
2022/04/12 05:44:36;;;;;;;6.70;6.10;;;6.10;99.90;;;;;;4964793;28;20189;-92
2022/04/12 05:47:03;;;;;;;6.40;4.83;;;6.00;99.90;;;;;;4963905;28;20196;-91
2022/04/12 05:49:30;;;;;;;6.83;6.07;;;6.10;99.90;;;;;;4968426;28;20340;-91
2022/04/12 05:51:56;;;;;;;11.63;8.00;;;6.30;99.90;;;;;;4971308;28;20467;-88
2022/04/12 05:54:22;;;;;;;7.40;5.67;;;6.70;99.90;;;;;;4959871;28;20444;-90
2022/04/12 05:56:48;;;;;;;6.23;5.63;;;7.00;99.90;;;;;;4965093;28;20614;-88
2022/04/12 05:59:14;;;;;;;7.83;7.10;;;7.20;99.90;;;;;;4962052;28;20444;-87
2022/04/12 06:01:40;;;;;;;8.70;7.00;;;7.40;99.90;;;;;;4972722;28;20894;-89
2022/04/12 06:04:09;;;;;;;6.47;5.83;;;7.60;99.90;;;;;;4965965;28;20791;-89
2022/04/12 06:06:36;;;;;;;79.60;71.10;;;7.80;99.90;;;;;;4970932;28;20238;-90
2022/04/12 06:09:05;;;;;;;12.53;11.10;;;7.90;99.90;;;;;;4970639;28;20446;-94
2022/04/12 06:11:40;;;;;;;10.17;7.90;;;8.10;99.90;;;;;;4965170;28;20491;-91
2022/04/12 06:14:06;;;;;;;8.60;7.70;;;8.20;99.90;;;;;;4987138;28;20466;-91
2022/04/12 06:16:32;;;;;;;10.63;9.23;;;8.30;99.90;;;;;;4971161;28;20441;-90
2022/04/12 06:19:00;;;;;;;11.13;9.90;;;8.40;99.90;;;;;;4970319;28;20196;-91
2022/04/12 06:21:26;;;;;;;16.03;11.90;;;8.50;99.90;;;;;;4971891;28;20715;-90
2022/04/12 06:23:51;;;;;;;19.33;15.37;;;8.50;99.90;;;;;;4975163;28;20535;-92
2022/04/12 06:26:22;;;;;;;28.63;18.57;;;8.60;99.90;;;;;;4973706;28;20188;-90
2022/04/12 06:28:48;;;;;;;24.47;16.87;;;8.70;99.90;;;;;;4970483;28;20658;-91
2022/04/12 06:31:13;;;;;;;16.10;12.13;;;8.90;99.90;;;;;;4969816;28;20487;-90
2022/04/12 06:33:41;;;;;;;13.97;11.53;;;9.00;99.90;;;;;;4975860;28;20194;-90
2022/04/12 06:36:06;;;;;;;11.10;9.90;;;9.20;99.90;;;;;;4971936;28;20547;-89
2022/04/12 06:38:35;;;;;;;9.43;8.23;;;9.30;99.90;;;;;;4991925;28;20543;-89
2022/04/12 06:41:03;;;;;;;9.97;7.70;;;9.50;99.90;;;;;;4972093;28;20285;-90
2022/04/12 06:43:28;;;;;;;7.33;6.63;;;9.60;99.90;;;;;;4971589;28;20439;-89
2022/04/12 06:45:54;;;;;;;6.53;5.93;;;9.60;99.90;;;;;;4988483;28;20444;-90
2022/04/12 06:48:20;;;;;;;6.87;6.17;;;9.50;99.90;;;;;;4961582;28;20659;-89
2022/04/12 06:50:45;;;;;;;6.30;5.80;;;9.40;99.90;;;;;;4969828;28;20201;-90
2022/04/12 06:53:11;;;;;;;6.40;5.87;;;9.50;99.90;;;;;;4975366;28;20656;-89
2022/04/12 06:55:47;;;;;;;7.80;6.40;;;9.60;99.90;;;;;;4971478;28;20192;-89
2022/04/12 06:58:13;;;;;;;7.13;6.03;;;9.80;99.70;;;;;;4987596;28;20180;-89
2022/04/12 07:00:40;;;;;;;6.57;5.73;;;9.90;99.80;;;;;;4986042;28;20452;-90
2022/04/12 07:03:06;;;;;;;5.93;5.43;;;9.90;99.80;;;;;;4988125;28;20216;-90
2022/04/12 07:05:31;;;;;;;6.50;5.87;;;10.00;99.10;;;;;;4985357;28;20497;-89
2022/04/12 07:07:57;;;;;;;6.97;6.27;;;10.20;98.90;;;;;;4996951;28;20208;-90
2022/04/12 07:10:22;;;;;;;7.47;6.77;;;10.20;98.90;;;;;;4976572;28;20182;-90
2022/04/12 07:12:53;;;;;;;7.00;6.33;;;10.30;99.20;;;;;;4991748;28;20205;-90
2022/04/12 07:15:19;;;;;;;7.10;5.70;;;10.40;98.50;;;;;;4971582;28;21167;-89
2022/04/12 07:17:45;;;;;;;6.90;6.00;;;10.70;97.80;;;;;;4994014;28;20458;-90
2022/04/12 07:20:11;;;;;;;8.03;5.83;;;10.90;97.90;;;;;;4972630;28;20559;-90
2022/04/12 07:22:36;;;;;;;6.27;5.60;;;11.10;97.00;;;;;;4984430;28;20693;-89
2022/04/12 07:25:03;;;;;;;5.70;5.20;;;11.20;96.60;;;;;;4977509;28;20433;-90
2022/04/12 07:27:38;;;;;;;7.33;6.10;;;11.20;96.90;;;;;;4974778;28;20208;-90
2022/04/12 07:30:07;;;;;;;5.93;5.43;;;11.20;97.20;;;;;;4983117;28;20512;-90
2022/04/12 07:32:36;;;;;;;6.43;5.83;;;11.30;96.60;;;;;;4973587;28;20479;-89
2022/04/12 07:35:13;;;;;;;7.27;5.33;;;11.40;97.70;;;;;;4989098;28;20848;-89
2022/04/12 07:37:43;;;;;;;5.93;5.33;;;11.60;97.60;;;;;;4974659;28;20552;-89
2022/04/12 07:40:09;;;;;;;6.40;5.80;;;11.90;96.00;;;;;;4985220;28;20254;-90
2022/04/12 07:42:35;;;;;;;6.63;5.97;;;12.20;96.60;;;;;;4983912;28;20440;-90
2022/04/12 07:45:01;;;;;;;6.17;5.40;;;12.50;95.20;;;;;;4973728;28;20455;-90
2022/04/12 07:47:26;;;;;;;6.53;5.50;;;12.60;94.40;;;;;;4974627;28;20243;-90
2022/04/12 07:49:52;;;;;;;6.80;6.20;;;12.70;94.30;;;;;;4982278;28;20442;-90
2022/04/12 07:52:17;;;;;;;8.00;7.30;;;12.80;94.50;;;;;;4964807;28;20315;-90
2022/04/12 07:54:43;;;;;;;7.70;6.77;;;12.50;94.80;;;;;;4976829;28;20189;-91
2022/04/12 07:57:08;;;;;;;7.63;6.93;;;12.40;94.50;;;;;;4971387;28;20674;-90
2022/04/12 07:59:34;;;;;;;7.30;6.33;;;12.20;94.60;;;;;;4981605;28;20639;-91
2022/04/12 08:02:00;;;;;;;7.37;6.67;;;12.60;94.30;;;;;;4981172;28;20449;-90
2022/04/12 08:04:25;;;;;;;6.83;6.17;;;13.00;93.40;;;;;;4976643;28;20181;-90
2022/04/12 08:06:51;;;;;;;6.73;6.07;;;13.30;92.80;;;;;;4975409;28;20189;-90
2022/04/12 08:09:19;;;;;;;6.93;6.23;;;12.90;92.60;;;;;;4984679;28;20177;-90
2022/04/12 08:11:44;;;;;;;5.80;5.20;;;12.80;93.10;;;;;;4973984;28;20250;-90
2022/04/12 08:14:10;;;;;;;6.93;6.20;;;13.30;93.80;;;;;;4973634;28;20536;-91
2022/04/12 08:16:41;;;;;;;6.00;5.50;;;13.60;93.50;;;;;;4974958;28;20189;-90
2022/04/12 08:19:09;;;;;;;7.07;5.50;;;13.90;93.30;;;;;;4973747;28;20196;-90
2022/04/12 08:21:40;;;;;;;6.40;5.70;;;13.80;92.00;;;;;;4971686;28;20447;-90
2022/04/12 08:24:07;;;;;;;5.83;5.33;;;13.90;91.90;;;;;;4971913;28;20659;-90
2022/04/12 08:26:33;;;;;;;6.30;5.80;;;14.20;91.80;;;;;;4972775;28;20457;-90
2022/04/12 08:28:58;;;;;;;6.10;5.60;;;14.70;92.90;;;;;;4972790;28;20443;-90
2022/04/12 08:31:24;;;;;;;6.70;6.10;;;14.50;91.50;;;;;;4976240;28;20221;-90
2022/04/12 08:33:49;;;;;;;5.87;5.27;;;14.80;91.90;;;;;;4977544;28;20243;-88
2022/04/12 08:36:16;;;;;;;5.90;5.27;;;15.10;91.20;;;;;;4980567;28;20459;-89
2022/04/12 08:38:45;;;;;;;7.10;6.50;;;15.30;92.70;;;;;;4989090;28;20189;-88
2022/04/12 08:41:14;;;;;;;6.07;5.47;;;15.60;90.60;;;;;;4971212;28;20468;-89
2022/04/12 08:43:40;;;;;;;5.70;5.20;;;15.90;87.90;;;;;;4968717;28;21065;-89
2022/04/12 08:46:07;;;;;;;5.17;4.67;;;16.10;87.30;;;;;;4976212;28;20439;-88
2022/04/12 08:48:34;;;;;;;5.43;4.53;;;16.20;83.20;;;;;;4971880;28;20451;-90
2022/04/12 08:51:04;;;;;;;4.23;3.93;;;16.10;87.40;;;;;;4977705;28;20480;-89
2022/04/12 08:53:31;;;;;;;5.37;4.97;;;16.20;83.40;;;;;;4962588;28;20448;-88
2022/04/12 08:55:59;;;;;;;5.60;5.10;;;16.40;88.20;;;;;;4975328;28;20491;-89
2022/04/12 08:58:26;;;;;;;5.20;4.70;;;16.50;90.60;;;;;;4972376;28;20447;-89
2022/04/12 09:00:52;;;;;;;5.17;4.70;;;16.80;90.70;;;;;;4971646;28;20443;-88
2022/04/12 09:03:18;;;;;;;5.00;4.30;;;17.30;88.10;;;;;;4983064;28;20587;-88
2022/04/12 09:05:48;;;;;;;5.07;4.23;;;17.50;90.10;;;;;;4978491;28;20188;-89
2022/04/12 09:08:24;;;;;;;4.83;4.33;;;17.40;85.30;;;;;;4970657;28;20490;-89
2022/04/12 09:11:11;;;;;;;5.20;4.60;;;17.80;88.30;;;;;;4973889;28;20526;-89
2022/04/12 09:13:40;;;;;;;4.87;4.47;;;17.80;82.40;;;;;;4962868;28;20452;-89
2022/04/12 09:16:09;;;;;;;5.90;5.40;;;17.50;78.90;;;;;;4970952;28;20447;-88
2022/04/12 09:18:38;;;;;;;6.10;5.10;;;17.30;82.70;;;;;;4972290;28;20502;-89
2022/04/12 09:21:21;;;;;;;6.53;5.87;;;17.50;83.80;;;;;;4977937;28;20811;-88
2022/04/12 09:23:52;;;;;;;5.40;4.90;;;16.70;83.90;;;;;;4967315;28;20866;-89
2022/04/12 09:26:23;;;;;;;6.90;5.13;;;16.70;86.20;;;;;;4972157;28;20432;-89
2022/04/12 09:28:53;;;;;;;5.70;5.20;;;16.90;83.60;;;;;;4974168;28;20447;-89
2022/04/12 09:31:21;;;;;;;5.60;5.10;;;17.00;89.70;;;;;;4976447;28;20476;-89
2022/04/12 09:33:48;;;;;;;7.70;5.40;;;17.30;91.70;;;;;;4986187;28;20468;-89
2022/04/12 09:36:17;;;;;;;6.93;6.17;;;17.50;93.90;;;;;;4978039;28;20470;-89
2022/04/12 09:38:45;;;;;;;5.70;5.20;;;17.60;93.00;;;;;;4976440;28;20491;-89
2022/04/12 09:41:26;;;;;;;7.50;5.47;;;17.60;91.30;;;;;;4980367;28;20439;-88
2022/04/12 09:44:05;;;;;;;6.17;5.67;;;17.70;91.60;;;;;;4994506;28;20439;-88
2022/04/12 09:46:32;;;;;;;5.50;5.10;;;17.80;91.30;;;;;;4975684;28;20460;-89
2022/04/12 09:48:57;;;;;;;6.40;4.80;;;18.20;90.20;;;;;;4968294;28;20443;-88
2022/04/12 09:51:23;;;;;;;6.23;5.63;;;18.10;90.60;;;;;;4971901;28;20478;-89
2022/04/12 09:53:49;;;;;;;5.70;5.20;;;18.40;87.90;;;;;;4964150;28;20745;-89
2022/04/12 09:56:22;;;;;;;7.23;5.83;;;18.60;90.50;;;;;;4972290;28;20185;-88
2022/04/12 09:58:52;;;;;;;6.00;5.40;;;19.00;88.00;;;;;;4992743;28;20551;-89
2022/04/12 10:01:21;;;;;;;5.50;4.80;;;19.10;84.20;;;;;;4975598;28;20467;-89
2022/04/12 10:03:56;;;;;;;4.80;4.30;;;19.30;86.60;;;;;;4970917;28;20751;-90
2022/04/12 10:06:23;;;;;;;4.57;4.17;;;19.80;82.20;;;;;;4973490;28;20451;-89
2022/04/12 10:08:54;;;;;;;5.27;2.80;;;20.20;84.90;;;;;;4969013;28;20497;-89
2022/04/12 10:11:20;;;;;;;3.30;3.00;;;20.50;76.40;;;;;;4991569;28;20592;-89
2022/04/12 10:13:48;;;;;;;7.40;3.20;;;20.80;76.20;;;;;;4986799;28;20529;-90
2022/04/12 10:16:15;;;;;;;3.80;3.50;;;21.10;76.00;;;;;;4970893;28;20450;-90
2022/04/12 10:18:40;;;;;;;3.30;3.00;;;21.00;72.10;;;;;;4982032;28;20518;-89
2022/04/12 10:21:06;;;;;;;3.27;2.97;;;21.00;72.70;;;;;;4983574;28;20443;-89
2022/04/12 10:23:33;;;;;;;3.83;3.07;;;21.00;71.20;;;;;;4972315;28;20192;-89
2022/04/12 10:26:00;;;;;;;5.53;3.33;;;21.00;67.60;;;;;;4963232;28;20965;-89
2022/04/12 10:28:28;;;;;;;3.27;2.93;;;20.80;65.10;;;;;;4968695;28;20438;-88
2022/04/12 10:31:12;;;;;;;3.10;2.90;;;20.60;64.00;;;;;;4981251;28;20551;-90
2022/04/12 10:33:37;;;;;;;2.93;2.60;;;21.10;65.90;;;;;;4986471;28;20465;-90
2022/04/12 10:36:05;;;;;;;2.80;2.60;;;21.30;66.00;;;;;;4966218;28;20445;-90
2022/04/12 10:38:40;;;;;;;3.50;3.20;;;21.50;65.40;;;;;;4972440;28;20443;-90
2022/04/12 10:41:26;;;;;;;4.30;2.93;;;21.40;67.70;;;;;;4975258;28;20464;-90
2022/04/12 10:43:56;;;;;;;5.60;2.90;;;21.20;66.60;;;;;;4968470;28;20443;-89
2022/04/12 10:46:22;;;;;;;2.57;2.47;;;21.50;64.20;;;;;;4971633;28;20444;-90
2022/04/12 10:49:05;;;;;;;2.80;2.60;;;21.30;62.00;;;;;;4973902;28;20440;-90
2022/04/12 10:51:41;;;;;;;3.30;3.10;;;21.00;66.80;;;;;;4967601;28;20248;-91
2022/04/12 10:54:30;;;;;;;3.70;2.97;;;20.60;68.90;;;;;;4977124;28;20475;-91
2022/04/12 10:57:24;;;;;;;4.60;3.03;;;20.50;63.30;;;;;;4987288;28;20919;-91
2022/04/12 11:00:25;;;;;;;3.40;3.20;;;20.80;66.50;;;;;;4980545;28;20440;-91
2022/04/12 11:02:56;;;;;;;3.73;3.30;;;21.20;65.90;;;;;;4982926;28;20443;-91
2022/04/12 11:05:33;;;;;;;3.53;3.23;;;21.50;70.10;;;;;;4983054;28;20432;-91
2022/04/12 11:07:59;;;;;;;3.13;2.93;;;22.00;68.20;;;;;;4977434;28;20528;-90
2022/04/12 11:10:25;;;;;;;3.50;3.20;;;22.30;67.90;;;;;;4970778;28;20550;-91
2022/04/12 11:13:10;;;;;;;3.80;3.20;;;22.50;69.00;;;;;;4970712;28;20451;-91
2022/04/12 11:15:37;;;;;;;5.57;3.40;;;22.80;66.90;;;;;;4972602;28;20528;-91
2022/04/12 11:18:08;;;;;;;3.27;2.90;;;23.30;68.10;;;;;;4990154;28;20443;-91
2022/04/12 11:20:35;;;;;;;4.97;3.17;;;23.50;65.40;;;;;;4974163;28;21004;-91
2022/04/12 11:23:29;;;;;;;3.27;3.00;;;23.30;64.20;;;;;;4985053;28;20448;-91
2022/04/12 11:25:58;;;;;;;6.87;3.20;;;23.10;67.80;;;;;;4969444;28;20798;-91
2022/04/12 11:28:26;;;;;;;2.97;2.77;;;23.00;67.20;;;;;;4971763;28;20478;-92
2022/04/12 11:30:59;;;;;;;3.90;2.90;;;23.20;68.20;;;;;;4996418;28;20493;-91
2022/04/12 11:33:27;;;;;;;4.23;3.07;;;23.10;63.00;;;;;;4977662;28;20247;-91
2022/04/12 11:35:53;;;;;;;3.40;2.67;;;23.30;70.60;;;;;;4983240;28;20460;-91
2022/04/12 11:38:31;;;;;;;3.80;2.37;;;23.30;60.70;;;;;;4970773;28;20443;-91
2022/04/12 11:41:01;;;;;;;3.60;2.90;;;23.10;66.50;;;;;;4973535;28;20444;-90
2022/04/12 11:43:27;;;;;;;5.33;3.23;;;23.30;68.70;;;;;;4968475;28;20523;-91
2022/04/12 11:45:55;;;;;;;4.07;2.70;;;23.60;65.50;;;;;;4966276;28;20452;-91
2022/04/12 11:48:21;;;;;;;2.80;2.57;;;23.90;66.10;;;;;;4981968;28;20428;-91
2022/04/12 11:50:52;;;;;;;2.10;2.00;;;24.10;64.20;;;;;;4968628;28;20460;-91
2022/04/12 11:53:21;;;;;;;3.10;2.50;;;24.20;65.40;;;;;;4986182;28;20593;-91
2022/04/12 11:55:47;;;;;;;2.30;2.10;;;24.70;61.50;;;;;;4979740;28;20804;-90
2022/04/12 11:58:14;;;;;;;3.13;2.17;;;25.00;60.80;;;;;;4981704;28;20454;-91
2022/04/12 12:00:39;;;;;;;2.20;2.00;;;25.30;59.60;;;;;;4973870;28;20192;-91
2022/04/12 12:03:05;;;;;;;2.30;2.10;;;25.50;58.70;;;;;;4972936;28;20977;-91
2022/04/12 12:05:31;;;;;;;2.20;2.07;;;24.80;58.20;;;;;;4967630;28;20207;-91
2022/04/12 12:08:00;;;;;;;4.03;1.90;;;24.30;59.80;;;;;;4963612;28;20190;-91
2022/04/12 12:10:29;;;;;;;2.50;1.97;;;24.20;58.90;;;;;;4986694;28;20436;-91
2022/04/12 12:12:55;;;;;;;2.13;1.93;;;24.20;58.70;;;;;;4965154;28;20451;-92
2022/04/12 12:15:22;;;;;;;1.60;1.50;;;24.00;61.10;;;;;;4968728;28;20447;-90
2022/04/12 12:17:49;;;;;;;3.37;2.27;;;23.40;62.70;;;;;;4976518;28;20193;-88
2022/04/12 12:20:17;;;;;;;3.90;1.73;;;23.30;64.20;;;;;;4958941;28;20517;-90
2022/04/12 12:22:44;;;;;;;2.20;1.70;;;23.60;59.50;;;;;;4960229;28;20699;-88
2022/04/12 12:25:18;;;;;;;1.40;1.30;;;24.10;59.90;;;;;;4973684;28;20543;-91
2022/04/12 12:27:51;;;;;;;1.50;1.40;;;24.00;58.10;;;;;;4972422;28;20454;-90
2022/04/12 12:30:32;;;;;;;1.73;1.60;;;24.10;58.60;;;;;;4968292;28;20435;-90
2022/04/12 12:32:58;;;;;;;3.43;1.87;;;24.20;58.10;;;;;;4975793;28;20459;-91
2022/04/12 12:35:25;;;;;;;1.60;1.50;;;24.70;56.50;;;;;;4971256;28;20502;-90
2022/04/12 12:38:20;;;;;;;3.33;1.70;;;25.00;54.50;;;;;;4968042;28;20189;-90
2022/04/12 12:40:46;;;;;;;2.50;1.40;;;24.40;54.70;;;;;;4985006;28;20432;-90
2022/04/12 12:43:17;;;;;;;1.87;1.77;;;25.00;56.20;;;;;;4973445;28;20472;-91
2022/04/12 12:45:45;;;;;;;2.00;1.60;;;25.40;56.60;;;;;;4973505;28;20531;-91
2022/04/12 12:48:19;;;;;;;2.67;1.63;;;25.20;55.90;;;;;;4966528;28;20217;-90
2022/04/12 12:50:45;;;;;;;2.53;1.50;;;24.40;57.10;;;;;;4969598;28;20459;-90
2022/04/12 12:53:13;;;;;;;2.07;1.60;;;23.90;56.10;;;;;;4960417;28;20459;-89
2022/04/12 12:55:44;;;;;;;2.33;1.57;;;23.60;56.90;;;;;;4971244;28;20463;-89
2022/04/12 12:58:19;;;;;;;2.30;1.30;;;23.60;58.00;;;;;;4975811;28;21583;-91